sensor_id;sensor_type;location;lat;lon;timestamp;P1;durP1;ratioP1;P2;durP2;ratioP2
5774;SDS011;2913;51.120;6.772;2023-04-24T00:01:06;1.60;;;1.10;;
5774;SDS011;2913;51.120;6.772;2023-04-24T00:03:32;2.20;;;1.48;;
5774;SDS011;2913;51.120;6.772;2023-04-24T00:05:58;3.70;;;1.40;;
5774;SDS011;2913;51.120;6.772;2023-04-24T00:08:27;3.88;;;1.50;;
5774;SDS011;2913;51.120;6.772;2023-04-24T00:10:55;3.40;;;1.60;;
5774;SDS011;2913;51.120;6.772;2023-04-24T00:13:23;1.70;;;1.30;;
5774;SDS011;2913;51.120;6.772;2023-04-24T00:15:51;5.28;;;1.60;;
5774;SDS011;2913;51.120;6.772;2023-04-24T00:18:17;3.78;;;2.05;;
5774;SDS011;2913;51.120;6.772;2023-04-24T00:20:44;3.85;;;1.63;;
5774;SDS011;2913;51.120;6.772;2023-04-24T00:23:11;2.40;;;1.65;;
5774;SDS011;2913;51.120;6.772;2023-04-24T00:25:37;3.55;;;1.80;;
5774;SDS011;2913;51.120;6.772;2023-04-24T00:28:04;2.03;;;1.50;;
5774;SDS011;2913;51.120;6.772;2023-04-24T00:30:31;3.05;;;1.40;;
5774;SDS011;2913;51.120;6.772;2023-04-24T00:32:59;4.65;;;1.60;;
5774;SDS011;2913;51.120;6.772;2023-04-24T00:35:25;5.15;;;1.83;;
5774;SDS011;2913;51.120;6.772;2023-04-24T00:37:51;5.50;;;1.75;;
5774;SDS011;2913;51.120;6.772;2023-04-24T00:40:16;2.65;;;1.70;;
5774;SDS011;2913;51.120;6.772;2023-04-24T00:42:43;2.47;;;1.42;;
5774;SDS011;2913;51.120;6.772;2023-04-24T00:45:09;9.60;;;1.98;;
5774;SDS011;2913;51.120;6.772;2023-04-24T00:47:35;3.05;;;1.75;;
5774;SDS011;2913;51.120;6.772;2023-04-24T00:50:05;4.72;;;1.80;;
5774;SDS011;2913;51.120;6.772;2023-04-24T00:52:31;5.82;;;2.00;;
5774;SDS011;2913;51.120;6.772;2023-04-24T00:54:59;8.82;;;2.20;;
5774;SDS011;2913;51.120;6.772;2023-04-24T00:57:25;7.70;;;1.85;;
5774;SDS011;2913;51.120;6.772;2023-04-24T00:59:51;4.15;;;1.70;;
5774;SDS011;2913;51.120;6.772;2023-04-24T01:02:21;5.97;;;2.10;;
5774;SDS011;2913;51.120;6.772;2023-04-24T01:04:49;3.40;;;2.03;;
5774;SDS011;2913;51.120;6.772;2023-04-24T01:07:16;3.35;;;1.80;;
5774;SDS011;2913;51.120;6.772;2023-04-24T01:09:48;5.75;;;2.47;;
5774;SDS011;2913;51.120;6.772;2023-04-24T01:12:16;7.03;;;2.70;;
5774;SDS011;2913;51.120;6.772;2023-04-24T01:14:41;6.50;;;3.35;;
5774;SDS011;2913;51.120;6.772;2023-04-24T01:17:07;8.50;;;3.63;;
5774;SDS011;2913;51.120;6.772;2023-04-24T01:19:34;8.60;;;3.60;;
5774;SDS011;2913;51.120;6.772;2023-04-24T01:21:59;8.35;;;3.80;;
5774;SDS011;2913;51.120;6.772;2023-04-24T01:24:29;10.23;;;4.47;;
5774;SDS011;2913;51.120;6.772;2023-04-24T01:26:57;10.00;;;4.32;;
5774;SDS011;2913;51.120;6.772;2023-04-24T01:29:23;10.35;;;4.55;;
5774;SDS011;2913;51.120;6.772;2023-04-24T01:31:51;9.23;;;4.88;;
5774;SDS011;2913;51.120;6.772;2023-04-24T01:34:17;10.98;;;5.28;;
5774;SDS011;2913;51.120;6.772;2023-04-24T01:36:43;11.15;;;5.20;;
5774;SDS011;2913;51.120;6.772;2023-04-24T01:39:11;10.75;;;5.63;;
5774;SDS011;2913;51.120;6.772;2023-04-24T01:41:37;8.25;;;5.00;;
5774;SDS011;2913;51.120;6.772;2023-04-24T01:44:03;12.30;;;4.97;;
5774;SDS011;2913;51.120;6.772;2023-04-24T01:46:31;12.18;;;4.70;;
5774;SDS011;2913;51.120;6.772;2023-04-24T01:48:59;10.27;;;5.65;;
5774;SDS011;2913;51.120;6.772;2023-04-24T01:51:26;12.63;;;5.10;;
5774;SDS011;2913;51.120;6.772;2023-04-24T01:53:51;11.15;;;5.63;;
5774;SDS011;2913;51.120;6.772;2023-04-24T01:56:18;10.00;;;5.82;;
5774;SDS011;2913;51.120;6.772;2023-04-24T01:58:48;14.52;;;5.82;;
5774;SDS011;2913;51.120;6.772;2023-04-24T02:01:23;13.18;;;4.85;;
5774;SDS011;2913;51.120;6.772;2023-04-24T02:03:51;13.65;;;5.93;;
5774;SDS011;2913;51.120;6.772;2023-04-24T02:06:19;19.90;;;6.07;;
5774;SDS011;2913;51.120;6.772;2023-04-24T02:08:44;13.00;;;6.32;;
5774;SDS011;2913;51.120;6.772;2023-04-24T02:11:10;12.75;;;6.55;;
5774;SDS011;2913;51.120;6.772;2023-04-24T02:13:40;10.38;;;5.88;;
5774;SDS011;2913;51.120;6.772;2023-04-24T02:16:06;19.05;;;6.28;;
5774;SDS011;2913;51.120;6.772;2023-04-24T02:18:34;15.02;;;6.55;;
5774;SDS011;2913;51.120;6.772;2023-04-24T02:21:00;19.45;;;7.30;;
5774;SDS011;2913;51.120;6.772;2023-04-24T02:23:27;21.67;;;7.88;;
5774;SDS011;2913;51.120;6.772;2023-04-24T02:25:53;17.60;;;7.70;;
5774;SDS011;2913;51.120;6.772;2023-04-24T02:28:19;14.05;;;8.05;;
5774;SDS011;2913;51.120;6.772;2023-04-24T02:30:44;14.00;;;7.80;;
5774;SDS011;2913;51.120;6.772;2023-04-24T02:33:10;17.42;;;7.75;;
5774;SDS011;2913;51.120;6.772;2023-04-24T02:35:39;17.27;;;8.52;;
5774;SDS011;2913;51.120;6.772;2023-04-24T02:38:04;21.73;;;8.57;;
5774;SDS011;2913;51.120;6.772;2023-04-24T02:40:30;19.08;;;7.82;;
5774;SDS011;2913;51.120;6.772;2023-04-24T02:42:55;19.02;;;8.35;;
5774;SDS011;2913;51.120;6.772;2023-04-24T02:45:23;22.40;;;8.85;;
5774;SDS011;2913;51.120;6.772;2023-04-24T02:47:51;21.63;;;9.27;;
5774;SDS011;2913;51.120;6.772;2023-04-24T02:50:17;22.92;;;9.05;;
5774;SDS011;2913;51.120;6.772;2023-04-24T02:52:43;20.65;;;8.75;;
5774;SDS011;2913;51.120;6.772;2023-04-24T02:55:08;19.02;;;8.00;;
5774;SDS011;2913;51.120;6.772;2023-04-24T02:57:36;20.20;;;8.45;;
5774;SDS011;2913;51.120;6.772;2023-04-24T03:00:02;27.83;;;9.18;;
5774;SDS011;2913;51.120;6.772;2023-04-24T03:02:32;18.73;;;8.65;;
5774;SDS011;2913;51.120;6.772;2023-04-24T03:04:57;22.23;;;8.18;;
5774;SDS011;2913;51.120;6.772;2023-04-24T03:07:30;20.15;;;8.27;;
5774;SDS011;2913;51.120;6.772;2023-04-24T03:09:58;17.00;;;7.97;;
5774;SDS011;2913;51.120;6.772;2023-04-24T03:12:24;22.45;;;8.32;;
5774;SDS011;2913;51.120;6.772;2023-04-24T03:14:52;18.60;;;9.48;;
5774;SDS011;2913;51.120;6.772;2023-04-24T03:17:18;19.08;;;8.23;;
5774;SDS011;2913;51.120;6.772;2023-04-24T03:19:46;23.65;;;9.38;;
5774;SDS011;2913;51.120;6.772;2023-04-24T03:22:14;21.27;;;8.85;;
5774;SDS011;2913;51.120;6.772;2023-04-24T03:24:39;25.13;;;9.13;;
5774;SDS011;2913;51.120;6.772;2023-04-24T03:27:05;16.88;;;8.57;;
5774;SDS011;2913;51.120;6.772;2023-04-24T03:29:31;23.00;;;8.52;;
5774;SDS011;2913;51.120;6.772;2023-04-24T03:31:56;19.60;;;8.40;;
5774;SDS011;2913;51.120;6.772;2023-04-24T03:34:22;21.73;;;9.25;;
5774;SDS011;2913;51.120;6.772;2023-04-24T03:36:50;20.20;;;8.50;;
5774;SDS011;2913;51.120;6.772;2023-04-24T03:39:16;21.23;;;10.02;;
5774;SDS011;2913;51.120;6.772;2023-04-24T03:41:41;22.45;;;8.60;;
5774;SDS011;2913;51.120;6.772;2023-04-24T03:44:11;23.73;;;9.35;;
5774;SDS011;2913;51.120;6.772;2023-04-24T03:46:39;20.25;;;8.52;;
5774;SDS011;2913;51.120;6.772;2023-04-24T03:49:05;23.48;;;8.38;;
5774;SDS011;2913;51.120;6.772;2023-04-24T03:51:30;21.65;;;9.07;;
5774;SDS011;2913;51.120;6.772;2023-04-24T03:53:57;26.15;;;9.40;;
5774;SDS011;2913;51.120;6.772;2023-04-24T03:56:22;22.80;;;9.52;;
5774;SDS011;2913;51.120;6.772;2023-04-24T03:58:48;25.45;;;8.88;;
5774;SDS011;2913;51.120;6.772;2023-04-24T04:01:13;27.25;;;10.00;;
5774;SDS011;2913;51.120;6.772;2023-04-24T04:03:40;22.15;;;9.23;;
5774;SDS011;2913;51.120;6.772;2023-04-24T04:06:06;28.50;;;9.15;;
5774;SDS011;2913;51.120;6.772;2023-04-24T04:08:32;20.10;;;8.85;;
5774;SDS011;2913;51.120;6.772;2023-04-24T04:10:58;17.58;;;9.15;;
5774;SDS011;2913;51.120;6.772;2023-04-24T04:13:23;24.05;;;10.02;;
5774;SDS011;2913;51.120;6.772;2023-04-24T04:15:49;23.40;;;9.82;;
5774;SDS011;2913;51.120;6.772;2023-04-24T04:18:17;25.35;;;9.50;;
5774;SDS011;2913;51.120;6.772;2023-04-24T04:20:43;22.30;;;9.63;;
5774;SDS011;2913;51.120;6.772;2023-04-24T04:23:08;22.02;;;9.95;;
5774;SDS011;2913;51.120;6.772;2023-04-24T04:25:34;22.67;;;9.13;;
5774;SDS011;2913;51.120;6.772;2023-04-24T04:27:59;23.23;;;9.77;;
5774;SDS011;2913;51.120;6.772;2023-04-24T04:30:27;19.55;;;9.13;;
5774;SDS011;2913;51.120;6.772;2023-04-24T04:32:54;23.08;;;8.82;;
5774;SDS011;2913;51.120;6.772;2023-04-24T04:35:20;17.20;;;8.82;;
5774;SDS011;2913;51.120;6.772;2023-04-24T04:37:48;18.23;;;8.95;;
5774;SDS011;2913;51.120;6.772;2023-04-24T04:40:14;18.77;;;9.07;;
5774;SDS011;2913;51.120;6.772;2023-04-24T04:42:39;21.05;;;9.25;;
5774;SDS011;2913;51.120;6.772;2023-04-24T04:45:08;20.92;;;9.00;;
5774;SDS011;2913;51.120;6.772;2023-04-24T04:47:37;21.02;;;9.32;;
5774;SDS011;2913;51.120;6.772;2023-04-24T04:50:03;22.10;;;8.80;;
5774;SDS011;2913;51.120;6.772;2023-04-24T04:52:30;24.70;;;8.50;;
5774;SDS011;2913;51.120;6.772;2023-04-24T04:54:56;15.35;;;8.48;;
5774;SDS011;2913;51.120;6.772;2023-04-24T04:57:24;18.08;;;8.55;;
5774;SDS011;2913;51.120;6.772;2023-04-24T04:59:50;18.60;;;8.38;;
5774;SDS011;2913;51.120;6.772;2023-04-24T05:02:15;16.75;;;7.82;;
5774;SDS011;2913;51.120;6.772;2023-04-24T05:04:43;18.00;;;7.75;;
5774;SDS011;2913;51.120;6.772;2023-04-24T05:07:10;15.88;;;6.50;;
5774;SDS011;2913;51.120;6.772;2023-04-24T05:09:36;15.98;;;7.40;;
5774;SDS011;2913;51.120;6.772;2023-04-24T05:12:04;13.05;;;7.13;;
5774;SDS011;2913;51.120;6.772;2023-04-24T05:14:30;14.32;;;7.32;;
5774;SDS011;2913;51.120;6.772;2023-04-24T05:16:55;14.95;;;7.32;;
5774;SDS011;2913;51.120;6.772;2023-04-24T05:19:21;19.00;;;7.25;;
5774;SDS011;2913;51.120;6.772;2023-04-24T05:21:47;16.25;;;7.70;;
5774;SDS011;2913;51.120;6.772;2023-04-24T05:24:15;17.17;;;6.95;;
5774;SDS011;2913;51.120;6.772;2023-04-24T05:26:40;19.92;;;7.15;;
5774;SDS011;2913;51.120;6.772;2023-04-24T05:29:06;17.23;;;7.50;;
5774;SDS011;2913;51.120;6.772;2023-04-24T05:31:39;15.43;;;7.68;;
5774;SDS011;2913;51.120;6.772;2023-04-24T05:34:05;12.70;;;6.95;;
5774;SDS011;2913;51.120;6.772;2023-04-24T05:36:32;14.40;;;7.90;;
5774;SDS011;2913;51.120;6.772;2023-04-24T05:38:58;17.80;;;7.60;;
5774;SDS011;2913;51.120;6.772;2023-04-24T05:41:24;18.73;;;7.35;;
5774;SDS011;2913;51.120;6.772;2023-04-24T05:43:50;16.75;;;8.15;;
5774;SDS011;2913;51.120;6.772;2023-04-24T05:46:17;20.85;;;8.48;;
5774;SDS011;2913;51.120;6.772;2023-04-24T05:48:43;16.90;;;8.43;;
5774;SDS011;2913;51.120;6.772;2023-04-24T05:51:09;21.05;;;8.35;;
5774;SDS011;2913;51.120;6.772;2023-04-24T05:53:37;17.13;;;7.72;;
5774;SDS011;2913;51.120;6.772;2023-04-24T05:56:02;17.92;;;8.50;;
5774;SDS011;2913;51.120;6.772;2023-04-24T05:58:28;22.63;;;8.10;;
5774;SDS011;2913;51.120;6.772;2023-04-24T06:00:56;14.57;;;6.95;;
5774;SDS011;2913;51.120;6.772;2023-04-24T06:03:23;19.63;;;6.95;;
5774;SDS011;2913;51.120;6.772;2023-04-24T06:05:50;12.60;;;6.63;;
5774;SDS011;2913;51.120;6.772;2023-04-24T06:08:18;17.58;;;7.50;;
5774;SDS011;2913;51.120;6.772;2023-04-24T06:10:44;12.90;;;7.18;;
5774;SDS011;2913;51.120;6.772;2023-04-24T06:13:15;23.70;;;7.90;;
5774;SDS011;2913;51.120;6.772;2023-04-24T06:15:41;8.23;;;4.57;;
5774;SDS011;2913;51.120;6.772;2023-04-24T06:18:07;11.32;;;6.53;;
5774;SDS011;2913;51.120;6.772;2023-04-24T06:20:35;15.32;;;6.88;;
5774;SDS011;2913;51.120;6.772;2023-04-24T06:23:00;13.30;;;5.85;;
5774;SDS011;2913;51.120;6.772;2023-04-24T06:25:26;16.02;;;5.97;;
5774;SDS011;2913;51.120;6.772;2023-04-24T06:27:52;15.55;;;5.43;;
5774;SDS011;2913;51.120;6.772;2023-04-24T06:30:18;11.07;;;5.47;;
5774;SDS011;2913;51.120;6.772;2023-04-24T06:32:44;13.15;;;5.03;;
5774;SDS011;2913;51.120;6.772;2023-04-24T06:35:10;7.38;;;3.90;;
5774;SDS011;2913;51.120;6.772;2023-04-24T06:37:37;4.72;;;2.67;;
5774;SDS011;2913;51.120;6.772;2023-04-24T06:40:06;10.90;;;4.60;;
5774;SDS011;2913;51.120;6.772;2023-04-24T06:42:32;16.33;;;5.78;;
5774;SDS011;2913;51.120;6.772;2023-04-24T06:45:00;15.43;;;4.97;;
5774;SDS011;2913;51.120;6.772;2023-04-24T06:47:26;9.77;;;4.80;;
5774;SDS011;2913;51.120;6.772;2023-04-24T06:49:52;10.32;;;4.00;;
5774;SDS011;2913;51.120;6.772;2023-04-24T06:52:18;11.00;;;5.32;;
5774;SDS011;2913;51.120;6.772;2023-04-24T06:54:44;7.93;;;4.63;;
5774;SDS011;2913;51.120;6.772;2023-04-24T06:57:10;11.35;;;4.80;;
5774;SDS011;2913;51.120;6.772;2023-04-24T06:59:35;8.45;;;4.50;;
5774;SDS011;2913;51.120;6.772;2023-04-24T07:02:01;10.75;;;4.70;;
5774;SDS011;2913;51.120;6.772;2023-04-24T07:04:30;5.40;;;2.53;;
5774;SDS011;2913;51.120;6.772;2023-04-24T07:06:56;8.85;;;3.70;;
5774;SDS011;2913;51.120;6.772;2023-04-24T07:09:24;7.18;;;3.60;;
5774;SDS011;2913;51.120;6.772;2023-04-24T07:11:53;5.93;;;3.20;;
5774;SDS011;2913;51.120;6.772;2023-04-24T07:14:22;7.18;;;2.83;;
5774;SDS011;2913;51.120;6.772;2023-04-24T07:16:49;6.20;;;2.70;;
5774;SDS011;2913;51.120;6.772;2023-04-24T07:19:15;4.97;;;2.47;;
5774;SDS011;2913;51.120;6.772;2023-04-24T07:21:41;2.58;;;1.83;;
5774;SDS011;2913;51.120;6.772;2023-04-24T07:24:09;5.65;;;2.03;;
5774;SDS011;2913;51.120;6.772;2023-04-24T07:26:35;3.35;;;1.80;;
5774;SDS011;2913;51.120;6.772;2023-04-24T07:29:05;4.22;;;2.00;;
5774;SDS011;2913;51.120;6.772;2023-04-24T07:31:31;5.40;;;2.08;;
5774;SDS011;2913;51.120;6.772;2023-04-24T07:33:59;3.72;;;1.77;;
5774;SDS011;2913;51.120;6.772;2023-04-24T07:36:24;4.15;;;2.13;;
5774;SDS011;2913;51.120;6.772;2023-04-24T07:38:50;3.28;;;1.90;;
5774;SDS011;2913;51.120;6.772;2023-04-24T07:41:17;5.65;;;2.35;;
5774;SDS011;2913;51.120;6.772;2023-04-24T07:43:42;4.07;;;1.25;;
5774;SDS011;2913;51.120;6.772;2023-04-24T07:46:11;3.60;;;1.05;;
5774;SDS011;2913;51.120;6.772;2023-04-24T07:48:37;2.50;;;0.57;;
5774;SDS011;2913;51.120;6.772;2023-04-24T07:51:05;1.10;;;0.80;;
5774;SDS011;2913;51.120;6.772;2023-04-24T07:53:30;3.40;;;0.80;;
5774;SDS011;2913;51.120;6.772;2023-04-24T07:55:56;0.88;;;0.50;;
5774;SDS011;2913;51.120;6.772;2023-04-24T07:58:26;1.00;;;0.32;;
5774;SDS011;2913;51.120;6.772;2023-04-24T08:00:52;1.17;;;0.50;;
5774;SDS011;2913;51.120;6.772;2023-04-24T08:03:18;4.50;;;0.50;;
5774;SDS011;2913;51.120;6.772;2023-04-24T08:05:44;5.38;;;1.10;;
5774;SDS011;2913;51.120;6.772;2023-04-24T08:08:13;1.60;;;0.98;;
5774;SDS011;2913;51.120;6.772;2023-04-24T08:10:40;5.32;;;1.17;;
5774;SDS011;2913;51.120;6.772;2023-04-24T08:13:06;2.97;;;1.77;;
5774;SDS011;2913;51.120;6.772;2023-04-24T08:15:32;5.47;;;1.88;;
5774;SDS011;2913;51.120;6.772;2023-04-24T08:18:02;6.38;;;1.92;;
5774;SDS011;2913;51.120;6.772;2023-04-24T08:20:28;5.15;;;1.98;;
5774;SDS011;2913;51.120;6.772;2023-04-24T08:22:54;7.35;;;2.80;;
5774;SDS011;2913;51.120;6.772;2023-04-24T08:25:20;8.93;;;3.50;;
5774;SDS011;2913;51.120;6.772;2023-04-24T08:27:48;6.95;;;3.10;;
5774;SDS011;2913;51.120;6.772;2023-04-24T08:30:15;10.27;;;3.15;;
5774;SDS011;2913;51.120;6.772;2023-04-24T08:32:43;7.70;;;3.92;;
5774;SDS011;2913;51.120;6.772;2023-04-24T08:35:12;5.28;;;2.55;;
5774;SDS011;2913;51.120;6.772;2023-04-24T08:37:40;6.90;;;3.10;;
5774;SDS011;2913;51.120;6.772;2023-04-24T08:40:16;7.10;;;3.10;;
5774;SDS011;2913;51.120;6.772;2023-04-24T08:42:42;6.70;;;3.45;;
5774;SDS011;2913;51.120;6.772;2023-04-24T08:45:11;6.00;;;2.97;;
5774;SDS011;2913;51.120;6.772;2023-04-24T08:47:38;6.65;;;2.53;;
5774;SDS011;2913;51.120;6.772;2023-04-24T08:50:05;10.93;;;3.63;;
5774;SDS011;2913;51.120;6.772;2023-04-24T08:52:36;9.38;;;4.22;;
5774;SDS011;2913;51.120;6.772;2023-04-24T08:55:02;13.60;;;3.90;;
5774;SDS011;2913;51.120;6.772;2023-04-24T08:57:30;9.45;;;3.92;;
5774;SDS011;2913;51.120;6.772;2023-04-24T08:59:57;13.70;;;5.40;;
5774;SDS011;2913;51.120;6.772;2023-04-24T09:02:26;15.48;;;5.00;;
5774;SDS011;2913;51.120;6.772;2023-04-24T09:04:57;14.27;;;5.13;;
5774;SDS011;2913;51.120;6.772;2023-04-24T09:07:25;10.63;;;5.30;;
5774;SDS011;2913;51.120;6.772;2023-04-24T09:09:55;10.65;;;5.30;;
5774;SDS011;2913;51.120;6.772;2023-04-24T09:12:21;12.18;;;5.13;;
5774;SDS011;2913;51.120;6.772;2023-04-24T09:14:47;13.50;;;5.15;;
5774;SDS011;2913;51.120;6.772;2023-04-24T09:17:16;13.20;;;5.50;;
5774;SDS011;2913;51.120;6.772;2023-04-24T09:19:44;20.63;;;5.65;;
5774;SDS011;2913;51.120;6.772;2023-04-24T09:22:09;13.30;;;5.38;;
5774;SDS011;2913;51.120;6.772;2023-04-24T09:24:36;10.98;;;5.13;;
5774;SDS011;2913;51.120;6.772;2023-04-24T09:27:01;13.00;;;5.05;;
5774;SDS011;2913;51.120;6.772;2023-04-24T09:29:27;12.57;;;4.15;;
5774;SDS011;2913;51.120;6.772;2023-04-24T09:31:53;11.25;;;4.50;;
5774;SDS011;2913;51.120;6.772;2023-04-24T09:34:22;24.35;;;5.68;;
5774;SDS011;2913;51.120;6.772;2023-04-24T09:36:50;12.48;;;5.88;;
5774;SDS011;2913;51.120;6.772;2023-04-24T09:39:18;17.38;;;6.88;;
5774;SDS011;2913;51.120;6.772;2023-04-24T09:44:17;15.88;;;6.68;;
5774;SDS011;2913;51.120;6.772;2023-04-24T09:46:51;16.85;;;6.85;;
5774;SDS011;2913;51.120;6.772;2023-04-24T09:49:29;16.48;;;7.22;;
5774;SDS011;2913;51.120;6.772;2023-04-24T09:52:05;22.63;;;7.25;;
5774;SDS011;2913;51.120;6.772;2023-04-24T09:54:32;18.00;;;7.00;;
5774;SDS011;2913;51.120;6.772;2023-04-24T09:56:58;16.10;;;7.65;;
5774;SDS011;2913;51.120;6.772;2023-04-24T09:59:25;20.10;;;7.65;;
5774;SDS011;2913;51.120;6.772;2023-04-24T10:01:51;15.38;;;7.50;;
5774;SDS011;2913;51.120;6.772;2023-04-24T10:06:44;18.17;;;7.80;;
5774;SDS011;2913;51.120;6.772;2023-04-24T10:09:10;29.67;;;8.52;;
5774;SDS011;2913;51.120;6.772;2023-04-24T10:11:37;19.02;;;8.32;;
5774;SDS011;2913;51.120;6.772;2023-04-24T10:14:08;25.38;;;8.00;;
5774;SDS011;2913;51.120;6.772;2023-04-24T10:16:38;18.92;;;7.25;;
5774;SDS011;2913;51.120;6.772;2023-04-24T10:19:05;21.60;;;7.93;;
5774;SDS011;2913;51.120;6.772;2023-04-24T10:21:32;23.88;;;8.00;;
5774;SDS011;2913;51.120;6.772;2023-04-24T10:23:59;30.83;;;8.05;;
5774;SDS011;2913;51.120;6.772;2023-04-24T10:26:28;24.08;;;7.65;;
5774;SDS011;2913;51.120;6.772;2023-04-24T10:28:56;22.05;;;7.13;;
5774;SDS011;2913;51.120;6.772;2023-04-24T10:31:23;27.50;;;7.43;;
5774;SDS011;2913;51.120;6.772;2023-04-24T10:33:50;21.20;;;7.68;;
5774;SDS011;2913;51.120;6.772;2023-04-24T10:36:17;19.40;;;7.40;;
5774;SDS011;2913;51.120;6.772;2023-04-24T10:38:46;21.10;;;7.28;;
5774;SDS011;2913;51.120;6.772;2023-04-24T10:41:15;24.60;;;6.75;;
5774;SDS011;2913;51.120;6.772;2023-04-24T10:43:47;20.50;;;6.93;;
5774;SDS011;2913;51.120;6.772;2023-04-24T10:46:34;19.17;;;6.65;;
5774;SDS011;2913;51.120;6.772;2023-04-24T10:49:03;32.95;;;6.82;;
5774;SDS011;2913;51.120;6.772;2023-04-24T10:54:26;25.92;;;5.50;;
5774;SDS011;2913;51.120;6.772;2023-04-24T10:56:52;16.37;;;5.27;;
5774;SDS011;2913;51.120;6.772;2023-04-24T10:59:25;17.38;;;5.57;;
5774;SDS011;2913;51.120;6.772;2023-04-24T11:01:53;25.90;;;9.20;;
5774;SDS011;2913;51.120;6.772;2023-04-24T11:04:29;27.17;;;9.27;;
5774;SDS011;2913;51.120;6.772;2023-04-24T11:07:00;23.05;;;5.93;;
5774;SDS011;2913;51.120;6.772;2023-04-24T11:09:27;32.53;;;5.43;;
5774;SDS011;2913;51.120;6.772;2023-04-24T11:20:04;20.55;;;4.75;;
5774;SDS011;2913;51.120;6.772;2023-04-24T11:22:34;15.38;;;4.82;;
5774;SDS011;2913;51.120;6.772;2023-04-24T11:25:04;13.27;;;4.72;;
5774;SDS011;2913;51.120;6.772;2023-04-24T11:27:40;22.13;;;5.13;;
5774;SDS011;2913;51.120;6.772;2023-04-24T11:30:08;24.63;;;5.63;;
5774;SDS011;2913;51.120;6.772;2023-04-24T11:32:41;20.17;;;5.20;;
5774;SDS011;2913;51.120;6.772;2023-04-24T11:35:20;16.02;;;5.50;;
5774;SDS011;2913;51.120;6.772;2023-04-24T11:37:50;24.30;;;5.80;;
5774;SDS011;2913;51.120;6.772;2023-04-24T11:40:18;25.35;;;6.13;;
5774;SDS011;2913;51.120;6.772;2023-04-24T11:42:51;24.50;;;5.68;;
5774;SDS011;2913;51.120;6.772;2023-04-24T11:45:24;15.63;;;5.68;;
5774;SDS011;2913;51.120;6.772;2023-04-24T11:47:54;22.27;;;5.50;;
5774;SDS011;2913;51.120;6.772;2023-04-24T11:50:24;22.67;;;5.60;;
5774;SDS011;2913;51.120;6.772;2023-04-24T11:52:51;18.33;;;5.05;;
5774;SDS011;2913;51.120;6.772;2023-04-24T11:57:44;15.75;;;4.18;;
5774;SDS011;2913;51.120;6.772;2023-04-24T12:00:16;14.23;;;4.95;;
5774;SDS011;2913;51.120;6.772;2023-04-24T12:02:47;20.77;;;4.85;;
5774;SDS011;2913;51.120;6.772;2023-04-24T12:05:19;11.75;;;4.68;;
5774;SDS011;2913;51.120;6.772;2023-04-24T12:07:51;17.10;;;5.47;;
5774;SDS011;2913;51.120;6.772;2023-04-24T12:10:23;11.80;;;3.97;;
5774;SDS011;2913;51.120;6.772;2023-04-24T12:12:51;18.13;;;3.92;;
5774;SDS011;2913;51.120;6.772;2023-04-24T12:15:18;11.60;;;4.00;;
5774;SDS011;2913;51.120;6.772;2023-04-24T12:17:46;12.00;;;3.80;;
5774;SDS011;2913;51.120;6.772;2023-04-24T12:20:14;19.30;;;3.65;;
5774;SDS011;2913;51.120;6.772;2023-04-24T12:22:47;18.88;;;4.10;;
5774;SDS011;2913;51.120;6.772;2023-04-24T12:25:20;17.05;;;3.58;;
5774;SDS011;2913;51.120;6.772;2023-04-24T12:27:53;21.70;;;4.07;;
5774;SDS011;2913;51.120;6.772;2023-04-24T12:30:26;19.73;;;4.00;;
5774;SDS011;2913;51.120;6.772;2023-04-24T12:32:57;16.52;;;3.28;;
5774;SDS011;2913;51.120;6.772;2023-04-24T12:35:24;11.75;;;3.67;;
5774;SDS011;2913;51.120;6.772;2023-04-24T12:37:52;12.77;;;3.60;;
5774;SDS011;2913;51.120;6.772;2023-04-24T12:40:19;12.25;;;3.00;;
5774;SDS011;2913;51.120;6.772;2023-04-24T12:42:50;18.35;;;3.78;;
5774;SDS011;2913;51.120;6.772;2023-04-24T12:45:18;10.98;;;3.72;;
5774;SDS011;2913;51.120;6.772;2023-04-24T12:47:44;13.77;;;3.40;;
5774;SDS011;2913;51.120;6.772;2023-04-24T12:50:16;17.58;;;3.63;;
5774;SDS011;2913;51.120;6.772;2023-04-24T12:52:43;10.57;;;2.70;;
5774;SDS011;2913;51.120;6.772;2023-04-24T12:55:08;9.63;;;2.47;;
5774;SDS011;2913;51.120;6.772;2023-04-24T12:57:35;9.63;;;2.47;;
5774;SDS011;2913;51.120;6.772;2023-04-24T13:00:02;11.15;;;2.78;;
5774;SDS011;2913;51.120;6.772;2023-04-24T13:02:29;9.43;;;2.40;;
5774;SDS011;2913;51.120;6.772;2023-04-24T13:04:58;7.78;;;2.03;;
5774;SDS011;2913;51.120;6.772;2023-04-24T13:07:25;10.27;;;2.83;;
5774;SDS011;2913;51.120;6.772;2023-04-24T13:09:51;9.93;;;2.80;;
5774;SDS011;2913;51.120;6.772;2023-04-24T13:12:17;7.68;;;3.30;;
5774;SDS011;2913;51.120;6.772;2023-04-24T13:14:43;8.98;;;3.22;;
5774;SDS011;2913;51.120;6.772;2023-04-24T13:17:09;11.45;;;3.08;;
5774;SDS011;2913;51.120;6.772;2023-04-24T13:19:40;9.07;;;2.90;;
5774;SDS011;2913;51.120;6.772;2023-04-24T13:22:09;10.63;;;2.95;;
5774;SDS011;2913;51.120;6.772;2023-04-24T13:24:37;10.30;;;3.40;;
5774;SDS011;2913;51.120;6.772;2023-04-24T13:27:04;20.58;;;4.57;;
5774;SDS011;2913;51.120;6.772;2023-04-24T13:29:30;9.45;;;3.15;;
5774;SDS011;2913;51.120;6.772;2023-04-24T13:31:56;10.70;;;3.30;;
5774;SDS011;2913;51.120;6.772;2023-04-24T13:34:24;15.07;;;3.55;;
5774;SDS011;2913;51.120;6.772;2023-04-24T13:36:53;6.43;;;2.80;;
5774;SDS011;2913;51.120;6.772;2023-04-24T13:39:22;9.82;;;3.00;;
5774;SDS011;2913;51.120;6.772;2023-04-24T13:41:51;7.65;;;2.60;;
5774;SDS011;2913;51.120;6.772;2023-04-24T13:44:19;10.80;;;3.35;;
5774;SDS011;2913;51.120;6.772;2023-04-24T13:46:47;10.75;;;3.28;;
5774;SDS011;2913;51.120;6.772;2023-04-24T13:49:16;6.05;;;2.53;;
5774;SDS011;2913;51.120;6.772;2023-04-24T13:51:43;13.20;;;2.80;;
5774;SDS011;2913;51.120;6.772;2023-04-24T13:54:09;7.82;;;2.58;;
5774;SDS011;2913;51.120;6.772;2023-04-24T13:56:37;13.07;;;3.17;;
5774;SDS011;2913;51.120;6.772;2023-04-24T13:59:07;8.13;;;3.08;;
5774;SDS011;2913;51.120;6.772;2023-04-24T14:01:35;4.68;;;2.90;;
5774;SDS011;2913;51.120;6.772;2023-04-24T14:04:00;9.73;;;2.90;;
5774;SDS011;2913;51.120;6.772;2023-04-24T14:06:26;9.43;;;3.35;;
5774;SDS011;2913;51.120;6.772;2023-04-24T14:08:52;9.82;;;3.08;;
5774;SDS011;2913;51.120;6.772;2023-04-24T14:11:18;11.18;;;4.00;;
5774;SDS011;2913;51.120;6.772;2023-04-24T14:13:46;9.18;;;2.92;;
5774;SDS011;2913;51.120;6.772;2023-04-24T14:16:12;6.78;;;2.30;;
5774;SDS011;2913;51.120;6.772;2023-04-24T14:18:39;8.70;;;2.58;;
5774;SDS011;2913;51.120;6.772;2023-04-24T14:21:04;7.63;;;2.13;;
5774;SDS011;2913;51.120;6.772;2023-04-24T14:23:30;12.02;;;2.83;;
5774;SDS011;2913;51.120;6.772;2023-04-24T14:25:56;4.00;;;2.20;;
5774;SDS011;2913;51.120;6.772;2023-04-24T14:28:25;10.75;;;3.45;;
5774;SDS011;2913;51.120;6.772;2023-04-24T14:30:53;8.27;;;2.65;;
5774;SDS011;2913;51.120;6.772;2023-04-24T14:33:18;8.23;;;2.70;;
5774;SDS011;2913;51.120;6.772;2023-04-24T14:35:46;7.28;;;2.78;;
5774;SDS011;2913;51.120;6.772;2023-04-24T14:38:12;16.70;;;3.10;;
5774;SDS011;2913;51.120;6.772;2023-04-24T14:40:40;5.97;;;3.28;;
5774;SDS011;2913;51.120;6.772;2023-04-24T14:43:08;10.23;;;2.67;;
5774;SDS011;2913;51.120;6.772;2023-04-24T14:45:33;12.50;;;2.90;;
5774;SDS011;2913;51.120;6.772;2023-04-24T14:48:02;5.20;;;2.50;;
5774;SDS011;2913;51.120;6.772;2023-04-24T14:50:29;6.95;;;2.17;;
5774;SDS011;2913;51.120;6.772;2023-04-24T14:52:55;7.63;;;2.28;;
5774;SDS011;2913;51.120;6.772;2023-04-24T14:55:24;4.32;;;2.00;;
5774;SDS011;2913;51.120;6.772;2023-04-24T14:57:51;9.70;;;1.95;;
5774;SDS011;2913;51.120;6.772;2023-04-24T15:00:16;5.65;;;1.98;;
5774;SDS011;2913;51.120;6.772;2023-04-24T15:02:45;4.53;;;2.05;;
5774;SDS011;2913;51.120;6.772;2023-04-24T15:05:11;7.15;;;1.90;;
5774;SDS011;2913;51.120;6.772;2023-04-24T15:07:37;9.52;;;2.10;;
5774;SDS011;2913;51.120;6.772;2023-04-24T15:10:03;7.30;;;2.00;;
5774;SDS011;2913;51.120;6.772;2023-04-24T15:12:30;6.47;;;2.08;;
5774;SDS011;2913;51.120;6.772;2023-04-24T15:14:57;3.45;;;2.08;;
5774;SDS011;2913;51.120;6.772;2023-04-24T15:17:25;5.70;;;2.20;;
5774;SDS011;2913;51.120;6.772;2023-04-24T15:19:51;12.52;;;2.38;;
5774;SDS011;2913;51.120;6.772;2023-04-24T15:22:17;5.50;;;2.35;;
5774;SDS011;2913;51.120;6.772;2023-04-24T15:24:43;9.13;;;2.97;;